createdAt,value
2023-05-10T00:00:10.091Z,92.93
2023-05-10T00:02:36.811Z,92.80
2023-05-10T00:05:03.532Z,92.78
2023-05-10T00:07:30.048Z,93.05
2023-05-10T00:09:56.500Z,92.92
2023-05-10T00:12:22.920Z,92.75
2023-05-10T00:14:49.334Z,92.74
2023-05-10T00:17:15.864Z,92.54
2023-05-10T00:19:42.277Z,92.51
2023-05-10T00:22:08.786Z,92.87
2023-05-10T00:24:35.504Z,92.80
2023-05-10T00:27:01.979Z,92.95
2023-05-10T00:29:29.364Z,92.92
2023-05-10T00:31:55.896Z,92.90
2023-05-10T00:34:22.371Z,92.67
2023-05-10T00:36:48.957Z,92.43
2023-05-10T00:39:15.430Z,92.52
2023-05-10T00:41:41.844Z,92.54
2023-05-10T00:44:08.272Z,92.32
2023-05-10T00:46:34.885Z,92.08
2023-05-10T00:49:01.411Z,91.92
2023-05-10T00:51:27.873Z,92.13
2023-05-10T00:53:54.733Z,92.18
2023-05-10T00:56:23.944Z,92.26
2023-05-10T00:58:50.523Z,92.37
2023-05-10T01:01:16.980Z,92.53
2023-05-10T01:03:43.771Z,92.75
2023-05-10T01:06:10.998Z,92.67
2023-05-10T01:08:37.740Z,92.63
2023-05-10T01:11:04.168Z,92.79
2023-05-10T01:13:40.443Z,93.24
2023-05-10T01:16:07.668Z,93.43
2023-05-10T01:18:36.683Z,93.58
2023-05-10T01:21:11.689Z,93.20
2023-05-10T01:23:44.225Z,93.49
2023-05-10T01:26:28.836Z,93.25
2023-05-10T01:32:07.016Z,93.45
2023-05-10T01:34:37.037Z,93.97
2023-05-10T01:37:10.400Z,93.75
2023-05-10T01:39:49.794Z,93.64
2023-05-10T01:42:19.066Z,94.04
2023-05-10T01:44:58.126Z,93.72
2023-05-10T01:47:27.550Z,93.78
2023-05-10T01:49:55.978Z,93.57
2023-05-10T01:52:33.494Z,93.71
2023-05-10T01:55:04.049Z,93.94
2023-05-10T01:57:34.115Z,93.88
2023-05-10T02:00:03.935Z,94.11
2023-05-10T02:02:30.460Z,94.32
2023-05-10T02:04:58.166Z,94.46
2023-05-10T02:07:25.155Z,94.30
2023-05-10T02:09:52.196Z,94.07
2023-05-10T02:12:19.150Z,94.22
2023-05-10T02:14:46.120Z,94.18
2023-05-10T02:17:13.019Z,94.05
2023-05-10T02:19:42.140Z,94.76
2023-05-10T02:22:10.280Z,94.76
2023-05-10T02:24:37.535Z,94.39
2023-05-10T02:27:04.850Z,94.31
2023-05-10T02:29:32.352Z,94.57
2023-05-10T02:31:59.967Z,93.96
2023-05-10T02:34:27.233Z,94.25
2023-05-10T02:36:54.404Z,94.65
2023-05-10T02:39:22.050Z,94.24
2023-05-10T02:41:49.854Z,94.62
2023-05-10T02:44:18.927Z,94.40
2023-05-10T02:46:46.132Z,94.55
2023-05-10T02:49:12.655Z,95.06
2023-05-10T02:51:46.087Z,94.80
2023-05-10T02:54:16.699Z,95.34
2023-05-10T02:56:46.171Z,94.89
2023-05-10T02:59:12.759Z,94.83
2023-05-10T03:01:39.458Z,95.42
2023-05-10T03:04:06.111Z,95.13
2023-05-10T03:06:32.659Z,95.33
2023-05-10T03:08:59.200Z,95.40
2023-05-10T03:12:04.663Z,94.91
2023-05-10T03:14:34.101Z,95.24
2023-05-10T03:17:16.889Z,95.01
2023-05-10T03:19:54.535Z,95.07
2023-05-10T03:22:42.174Z,95.08
2023-05-10T03:25:09.447Z,95.27
2023-05-10T03:27:37.630Z,95.30
2023-05-10T03:30:05.579Z,95.69
2023-05-10T03:32:33.525Z,96.06
2023-05-10T03:34:59.919Z,95.62
2023-05-10T03:37:26.335Z,95.93
2023-05-10T03:39:52.752Z,96.02
2023-05-10T03:42:19.234Z,96.24
2023-05-10T03:44:45.750Z,96.00
2023-05-10T03:47:12.241Z,95.76
2023-05-10T03:49:38.657Z,95.58
2023-05-10T03:52:06.312Z,95.56
2023-05-10T03:54:33.198Z,96.04
2023-05-10T03:56:59.654Z,95.91
2023-05-10T03:59:26.154Z,95.94
2023-05-10T04:01:52.813Z,96.17
2023-05-10T04:04:21.732Z,96.14
2023-05-10T04:06:48.265Z,95.75
2023-05-10T04:09:14.903Z,95.78
2023-05-10T04:11:41.371Z,95.93
2023-05-10T04:14:07.768Z,96.13
2023-05-10T04:16:34.209Z,96.33
2023-05-10T04:19:00.981Z,96.53
2023-05-10T04:21:27.372Z,96.41
2023-05-10T04:23:53.879Z,96.44
2023-05-10T04:26:21.162Z,96.38
2023-05-10T04:28:47.674Z,95.90
2023-05-10T04:31:14.162Z,95.94
2023-05-10T04:33:41.512Z,96.39
2023-05-10T04:36:08.238Z,96.44
2023-05-10T04:38:35.364Z,96.08
2023-05-10T04:41:06.533Z,95.90
2023-05-10T04:43:33.028Z,95.49
2023-05-10T04:45:59.562Z,95.35
2023-05-10T04:48:26.036Z,95.35
2023-05-10T04:50:52.505Z,95.79
2023-05-10T04:53:18.960Z,95.74
2023-05-10T04:55:45.335Z,94.97
2023-05-10T04:58:11.738Z,94.69
2023-05-10T05:00:38.200Z,93.80
2023-05-10T05:03:04.755Z,93.90
2023-05-10T05:05:31.234Z,94.19
2023-05-10T05:07:57.705Z,94.77
2023-05-10T05:10:24.158Z,94.55
2023-05-10T05:12:50.767Z,94.36
2023-05-10T05:15:17.853Z,94.43
2023-05-10T05:17:44.734Z,94.37
2023-05-10T05:20:11.727Z,94.35
2023-05-10T05:22:38.571Z,94.12
2023-05-10T05:25:05.577Z,94.27
2023-05-10T05:27:32.368Z,94.26
2023-05-10T05:29:58.898Z,93.96
2023-05-10T05:32:26.182Z,93.96
2023-05-10T05:34:52.802Z,94.32
2023-05-10T05:37:20.829Z,93.88
2023-05-10T05:39:47.554Z,93.76
2023-05-10T05:42:14.245Z,93.80
2023-05-10T05:44:40.730Z,93.71
2023-05-10T05:47:07.511Z,93.78
2023-05-10T05:49:34.027Z,94.34
2023-05-10T05:52:04.225Z,93.69
2023-05-10T05:54:31.708Z,93.75
2023-05-10T05:57:01.050Z,93.97
2023-05-10T05:59:28.314Z,93.96
2023-05-10T06:01:54.741Z,93.58
2023-05-10T06:04:21.419Z,93.33
2023-05-10T06:06:47.908Z,93.35
2023-05-10T06:09:14.358Z,92.91
2023-05-10T06:11:40.870Z,92.48
2023-05-10T06:14:08.733Z,92.29
2023-05-10T06:16:35.769Z,92.29
2023-05-10T06:19:02.563Z,92.28
2023-05-10T06:21:29.075Z,91.64
2023-05-10T06:23:55.608Z,91.15
2023-05-10T06:26:22.179Z,91.23
2023-05-10T06:28:48.875Z,90.87
2023-05-10T06:31:15.429Z,90.58
2023-05-10T06:33:41.916Z,90.53
2023-05-10T06:36:08.442Z,90.83
2023-05-10T06:38:34.991Z,90.07
2023-05-10T06:41:01.767Z,90.48
2023-05-10T06:43:29.642Z,90.22
2023-05-10T06:45:56.204Z,90.07
2023-05-10T06:48:22.940Z,89.80
2023-05-10T06:50:49.505Z,90.12
2023-05-10T06:53:16.350Z,90.37
2023-05-10T06:55:42.768Z,90.55
2023-05-10T06:58:09.242Z,90.26
2023-05-10T07:00:35.845Z,90.20
2023-05-10T07:03:02.494Z,89.29
2023-05-10T07:05:29.263Z,88.83
2023-05-10T07:07:55.815Z,89.41
2023-05-10T07:10:22.313Z,88.71
2023-05-10T07:12:48.879Z,88.09
2023-05-10T07:15:17.092Z,89.14
2023-05-10T07:17:45.925Z,88.35
2023-05-10T07:20:13.129Z,87.89
2023-05-10T07:22:39.577Z,87.71
2023-05-10T07:25:06.912Z,87.04
2023-05-10T07:27:33.604Z,87.41
2023-05-10T07:30:00.028Z,87.35
2023-05-10T07:32:26.797Z,87.47
2023-05-10T07:34:53.355Z,88.10
2023-05-10T07:37:19.890Z,87.78
2023-05-10T07:39:46.491Z,87.23
2023-05-10T07:42:12.913Z,87.01
2023-05-10T07:44:39.317Z,86.74
2023-05-10T07:47:05.780Z,86.66
2023-05-10T07:49:32.278Z,86.58
2023-05-10T07:51:58.788Z,87.12
2023-05-10T07:54:25.330Z,87.14
2023-05-10T07:56:51.963Z,87.74
2023-05-10T07:59:19.002Z,87.94
2023-05-10T08:01:45.628Z,88.63
2023-05-10T08:04:12.686Z,88.07
2023-05-10T08:06:39.904Z,88.08
2023-05-10T08:09:06.470Z,87.89
2023-05-10T08:11:34.856Z,88.01
2023-05-10T08:14:01.558Z,87.59
2023-05-10T08:16:28.469Z,87.60
2023-05-10T08:18:56.317Z,87.39
2023-05-10T08:21:22.975Z,86.83
2023-05-10T08:23:50.050Z,86.33
2023-05-10T08:26:16.561Z,85.55
2023-05-10T08:28:43.058Z,86.14
2023-05-10T08:31:09.602Z,86.40
2023-05-10T08:33:36.075Z,85.55
2023-05-10T08:36:02.509Z,85.18
2023-05-10T08:38:29.096Z,85.30
2023-05-10T08:40:59.772Z,84.46
2023-05-10T08:43:30.894Z,83.95
2023-05-10T08:45:58.315Z,84.01
2023-05-10T08:48:26.031Z,83.02
2023-05-10T08:50:55.955Z,83.22
2023-05-10T08:53:24.863Z,81.14
2023-05-10T08:55:51.667Z,81.28
2023-05-10T08:58:20.698Z,79.74
2023-05-10T09:00:49.454Z,79.85
2023-05-10T09:03:16.629Z,78.90
2023-05-10T09:05:43.246Z,77.41
2023-05-10T09:08:09.903Z,76.71
2023-05-10T09:10:36.564Z,76.26
2023-05-10T09:13:03.314Z,75.87
2023-05-10T09:15:29.780Z,76.78
2023-05-10T09:17:56.838Z,74.64
2023-05-10T09:20:23.524Z,74.76
2023-05-10T09:22:50.625Z,74.24
2023-05-10T09:25:18.126Z,75.44
2023-05-10T09:27:49.239Z,73.22
2023-05-10T09:30:29.449Z,74.29
2023-05-10T09:32:57.295Z,72.61
2023-05-10T09:35:28.821Z,72.99
2023-05-10T09:37:57.920Z,73.64
2023-05-10T09:40:25.862Z,74.98
2023-05-10T09:43:07.837Z,73.83
2023-05-10T09:45:37.660Z,74.43
2023-05-10T09:48:05.770Z,74.94
2023-05-10T09:50:32.329Z,74.98
2023-05-10T09:53:04.274Z,74.78
2023-05-10T09:55:40.761Z,72.32
2023-05-10T09:58:13.399Z,73.24
2023-05-10T10:00:44.462Z,71.16
2023-05-10T10:03:20.619Z,71.32
2023-05-10T10:05:48.362Z,70.35
2023-05-10T10:08:15.627Z,69.24
2023-05-10T10:10:42.660Z,70.80
2023-05-10T10:13:09.252Z,70.93
2023-05-10T10:15:36.024Z,71.50
2023-05-10T10:18:04.592Z,71.89
2023-05-10T10:20:31.374Z,70.63
2023-05-10T10:22:58.067Z,70.44
2023-05-10T10:25:24.656Z,70.44
2023-05-10T10:27:54.147Z,71.00
2023-05-10T10:30:35.832Z,70.39
2023-05-10T10:33:27.151Z,70.80
2023-05-10T10:35:55.788Z,71.62
2023-05-10T10:38:22.965Z,71.59
2023-05-10T10:40:57.459Z,71.97
2023-05-10T10:43:25.618Z,71.72
2023-05-10T10:46:14.950Z,72.74
2023-05-10T10:48:43.104Z,73.03
2023-05-10T10:51:10.844Z,71.80
2023-05-10T10:53:39.245Z,72.05
2023-05-10T10:56:14.409Z,69.57
2023-05-10T10:58:41.264Z,71.03
2023-05-10T11:01:16.687Z,71.45
2023-05-10T11:04:01.983Z,69.44
2023-05-10T11:06:35.196Z,70.31
2023-05-10T11:09:09.437Z,70.66
2023-05-10T11:11:37.045Z,70.90
2023-05-10T11:14:05.209Z,70.91
2023-05-10T11:16:42.301Z,71.91
2023-05-10T11:19:11.639Z,70.21
2023-05-10T11:22:14.613Z,69.60
2023-05-10T11:24:41.104Z,69.53
2023-05-10T11:27:07.727Z,69.02
2023-05-10T11:29:34.210Z,69.90
2023-05-10T11:32:00.971Z,69.02
2023-05-10T11:34:34.270Z,69.39
2023-05-10T11:37:00.774Z,70.26
2023-05-10T11:39:28.878Z,69.50
2023-05-10T11:41:55.653Z,70.05
2023-05-10T11:44:22.060Z,69.31
2023-05-10T11:46:48.620Z,70.52
2023-05-10T11:49:15.360Z,70.12
2023-05-10T11:51:43.709Z,69.55
2023-05-10T11:54:11.655Z,70.09
2023-05-10T11:56:41.723Z,70.57
2023-05-10T11:59:09.054Z,70.45
2023-05-10T12:01:36.182Z,69.68
2023-05-10T12:04:03.084Z,68.66
2023-05-10T12:06:32.190Z,68.87
2023-05-10T12:08:59.293Z,68.85
2023-05-10T12:11:27.074Z,69.45
2023-05-10T12:13:54.091Z,68.90
2023-05-10T12:16:25.725Z,68.62
2023-05-10T12:18:53.396Z,69.96
2023-05-10T12:21:21.164Z,68.14
2023-05-10T12:23:49.240Z,67.56
2023-05-10T12:26:15.909Z,66.34
2023-05-10T12:28:42.433Z,66.19
2023-05-10T12:31:09.144Z,65.37
2023-05-10T12:33:43.790Z,63.43
2023-05-10T12:36:14.728Z,62.91
2023-05-10T12:38:48.763Z,62.26
2023-05-10T12:41:19.514Z,61.14
2023-05-10T12:43:49.029Z,61.34
2023-05-10T12:46:17.040Z,63.39
2023-05-10T12:48:44.682Z,63.09
2023-05-10T12:51:12.768Z,61.60
2023-05-10T12:53:45.096Z,60.87
2023-05-10T12:56:12.612Z,61.50
2023-05-10T12:58:39.334Z,61.64
2023-05-10T13:01:06.172Z,61.70
2023-05-10T13:03:33.062Z,62.58
2023-05-10T13:05:59.697Z,63.57
2023-05-10T13:08:26.385Z,63.20
2023-05-10T13:10:52.992Z,63.46
2023-05-10T13:13:19.391Z,65.23
2023-05-10T13:15:45.931Z,64.90
2023-05-10T13:18:12.478Z,65.77
2023-05-10T13:20:39.187Z,66.95
2023-05-10T13:23:05.698Z,68.34
2023-05-10T13:25:32.176Z,69.14
2023-05-10T13:27:58.603Z,71.32
2023-05-10T13:30:25.025Z,72.25
2023-05-10T13:32:51.770Z,72.58
2023-05-10T13:35:18.229Z,74.01
2023-05-10T13:37:44.754Z,75.16
2023-05-10T13:40:11.603Z,75.71
2023-05-10T13:42:38.441Z,76.45
2023-05-10T13:45:05.407Z,77.64
2023-05-10T13:47:31.989Z,78.62
2023-05-10T13:49:58.690Z,79.33
2023-05-10T13:52:25.162Z,79.51
2023-05-10T13:54:53.201Z,80.45
2023-05-10T13:57:19.696Z,81.38
2023-05-10T13:59:46.155Z,82.04
2023-05-10T14:02:14.130Z,82.46
2023-05-10T14:04:40.672Z,82.36
2023-05-10T14:07:07.172Z,83.21
2023-05-10T14:09:33.586Z,83.70
2023-05-10T14:12:00.026Z,82.94
2023-05-10T14:14:26.801Z,82.05
2023-05-10T14:16:53.200Z,82.53
2023-05-10T14:19:20.049Z,81.36
2023-05-10T14:21:46.653Z,81.40
2023-05-10T14:24:13.076Z,81.00
2023-05-10T14:26:39.705Z,81.05
2023-05-10T14:29:06.097Z,80.84
2023-05-10T14:31:32.817Z,80.37
2023-05-10T14:34:00.057Z,80.96
2023-05-10T14:36:26.708Z,81.19
2023-05-10T14:38:53.223Z,80.80
2023-05-10T14:41:19.689Z,81.20
2023-05-10T14:43:46.853Z,80.84
2023-05-10T14:46:13.522Z,81.21
2023-05-10T14:48:39.959Z,80.45
2023-05-10T14:51:06.408Z,80.76
2023-05-10T14:53:33.465Z,81.21
2023-05-10T14:56:02.083Z,81.18
2023-05-10T14:58:28.840Z,82.16
2023-05-10T15:00:55.365Z,82.70
2023-05-10T15:03:22.388Z,83.31
2023-05-10T15:05:49.234Z,81.89
2023-05-10T15:08:15.739Z,80.80
2023-05-10T15:10:42.513Z,80.93
2023-05-10T15:13:08.913Z,80.45
2023-05-10T15:15:35.337Z,81.65
2023-05-10T15:18:01.807Z,80.51
2023-05-10T15:20:28.291Z,79.36
2023-05-10T15:22:54.848Z,77.75
2023-05-10T15:25:21.405Z,78.28
2023-05-10T15:27:47.804Z,77.86
2023-05-10T15:30:14.492Z,78.04
2023-05-10T15:32:41.457Z,77.37
2023-05-10T15:35:11.308Z,76.41
2023-05-10T15:37:38.860Z,77.78
2023-05-10T15:40:05.979Z,78.06
2023-05-10T15:42:32.794Z,75.98
2023-05-10T15:44:59.557Z,75.13
2023-05-10T15:47:26.802Z,75.32
2023-05-10T15:49:53.386Z,76.48
2023-05-10T15:52:21.516Z,74.92
2023-05-10T15:54:47.984Z,74.39
2023-05-10T15:57:14.426Z,74.82
2023-05-10T15:59:40.894Z,75.52
2023-05-10T16:02:08.715Z,74.41
2023-05-10T16:04:35.266Z,75.93
2023-05-10T16:07:01.733Z,74.63
2023-05-10T16:09:28.398Z,75.72
2023-05-10T16:11:56.726Z,72.93
2023-05-10T16:14:24.578Z,72.05
2023-05-10T16:16:51.570Z,71.25
2023-05-10T16:19:18.486Z,70.73
2023-05-10T16:21:45.270Z,70.36
2023-05-10T16:24:11.711Z,70.77
2023-05-10T16:26:40.984Z,69.87
2023-05-10T16:29:08.595Z,68.67
2023-05-10T16:31:35.486Z,67.97
2023-05-10T16:34:04.695Z,68.74
2023-05-10T16:36:31.532Z,69.37
2023-05-10T16:38:58.816Z,70.05
2023-05-10T16:41:25.819Z,70.94
2023-05-10T16:43:52.459Z,71.05
2023-05-10T16:46:19.168Z,71.45
2023-05-10T16:48:46.020Z,70.74
2023-05-10T16:51:12.494Z,72.10
2023-05-10T16:53:38.935Z,72.22
2023-05-10T16:56:05.675Z,72.81
2023-05-10T16:58:32.245Z,72.41
2023-05-10T17:00:58.780Z,72.86
2023-05-10T17:03:25.342Z,73.63
2023-05-10T17:05:51.832Z,74.09
2023-05-10T17:08:18.258Z,73.58
2023-05-10T17:10:44.737Z,73.63
2023-05-10T17:13:11.384Z,73.78
2023-05-10T17:15:38.750Z,74.59
2023-05-10T17:18:06.947Z,74.75
2023-05-10T17:20:34.258Z,75.28
2023-05-10T17:23:02.628Z,75.72
2023-05-10T17:25:29.224Z,74.93
2023-05-10T17:27:55.657Z,75.47
2023-05-10T17:30:26.346Z,74.99
2023-05-10T17:32:54.143Z,75.40
2023-05-10T17:35:21.487Z,76.26
2023-05-10T17:37:48.128Z,75.88
2023-05-10T17:40:14.664Z,76.66
2023-05-10T17:42:41.765Z,76.92
2023-05-10T17:45:08.813Z,76.69
2023-05-10T17:47:35.464Z,77.05
2023-05-10T17:50:01.996Z,76.63
2023-05-10T17:52:31.346Z,76.29
2023-05-10T17:54:59.831Z,76.00
2023-05-10T17:57:26.303Z,76.42
2023-05-10T17:59:52.901Z,76.66
2023-05-10T18:02:19.329Z,76.38
2023-05-10T18:04:46.048Z,75.86
2023-05-10T18:07:12.594Z,76.58
2023-05-10T18:09:39.022Z,76.63
2023-05-10T18:12:06.101Z,76.98
2023-05-10T18:14:40.446Z,77.58
2023-05-10T18:17:08.211Z,77.74
2023-05-10T18:19:34.776Z,77.56
2023-05-10T18:22:01.207Z,78.48
2023-05-10T18:24:38.212Z,77.44
2023-05-10T18:27:05.864Z,78.63
2023-05-10T18:29:32.603Z,78.39
2023-05-10T18:31:59.096Z,78.76
2023-05-10T18:34:25.640Z,78.27
2023-05-10T18:36:52.475Z,77.91
2023-05-10T18:39:19.130Z,78.32
2023-05-10T18:41:45.821Z,78.88
2023-05-10T18:44:12.320Z,79.06
2023-05-10T18:46:39.047Z,79.21
2023-05-10T18:49:06.444Z,79.16
2023-05-10T18:51:32.974Z,80.42
2023-05-10T18:53:59.445Z,80.16
2023-05-10T18:56:25.959Z,80.39
2023-05-10T18:58:52.682Z,81.04
2023-05-10T19:01:19.253Z,81.57
2023-05-10T19:03:45.822Z,81.92
2023-05-10T19:06:12.227Z,81.94
2023-05-10T19:08:38.699Z,82.01
2023-05-10T19:11:05.456Z,81.98
2023-05-10T19:13:31.896Z,82.27
2023-05-10T19:16:16.585Z,81.88
2023-05-10T19:18:45.866Z,82.64
2023-05-10T19:21:12.679Z,82.95
2023-05-10T19:23:40.166Z,82.77
2023-05-10T19:26:06.711Z,82.88
2023-05-10T19:28:34.218Z,82.72
2023-05-10T19:31:01.826Z,82.27
2023-05-10T19:33:28.450Z,82.32
2023-05-10T19:35:55.124Z,82.28
2023-05-10T19:38:22.415Z,82.42
2023-05-10T19:40:50.193Z,83.10
2023-05-10T19:43:17.147Z,82.98
2023-05-10T19:45:43.700Z,83.20
2023-05-10T19:48:11.081Z,83.32
2023-05-10T19:50:38.516Z,83.34
2023-05-10T19:53:05.191Z,83.20
2023-05-10T19:55:32.267Z,82.56
2023-05-10T19:58:00.702Z,82.46
2023-05-10T20:00:27.657Z,83.01
2023-05-10T20:02:54.401Z,82.95
2023-05-10T20:05:21.474Z,83.08
2023-05-10T20:07:48.006Z,83.18
2023-05-10T20:10:15.385Z,82.95
2023-05-10T20:12:41.867Z,83.12
2023-05-10T20:15:08.547Z,82.92
2023-05-10T20:17:35.702Z,83.27
2023-05-10T20:20:02.220Z,84.12
2023-05-10T20:22:28.622Z,83.88
2023-05-10T20:24:56.248Z,83.74
2023-05-10T20:27:23.355Z,83.09
2023-05-10T20:29:49.802Z,83.42
2023-05-10T20:32:16.306Z,83.50
2023-05-10T20:34:42.796Z,83.91
2023-05-10T20:37:09.390Z,84.57
2023-05-10T20:39:35.789Z,84.53
2023-05-10T20:42:02.355Z,84.68
2023-05-10T20:44:28.867Z,84.88
2023-05-10T20:46:55.372Z,84.99
2023-05-10T20:49:21.815Z,85.14
2023-05-10T20:51:48.327Z,84.83
2023-05-10T20:54:14.805Z,85.16
2023-05-10T20:56:41.276Z,84.76
2023-05-10T20:59:07.722Z,84.92
2023-05-10T21:01:34.119Z,84.74
2023-05-10T21:04:00.734Z,84.93
2023-05-10T21:06:27.297Z,84.82
2023-05-10T21:08:53.720Z,84.78
2023-05-10T21:11:20.795Z,84.72
2023-05-10T21:13:47.482Z,84.50
2023-05-10T21:16:13.979Z,84.78
2023-05-10T21:18:40.475Z,84.95
2023-05-10T21:21:06.964Z,84.09
2023-05-10T21:23:34.693Z,84.49
2023-05-10T21:26:03.139Z,84.35
2023-05-10T21:28:29.647Z,84.22
2023-05-10T21:30:56.756Z,83.50
2023-05-10T21:33:23.789Z,83.31
2023-05-10T21:35:50.549Z,83.52
2023-05-10T21:38:17.083Z,83.71
2023-05-10T21:40:43.549Z,83.62
2023-05-10T21:43:11.144Z,84.42
2023-05-10T21:45:37.703Z,84.60
2023-05-10T21:48:04.196Z,84.49
2023-05-10T21:50:30.834Z,84.46
2023-05-10T21:52:57.695Z,85.07
2023-05-10T21:55:24.247Z,84.89
2023-05-10T21:57:51.139Z,85.19
2023-05-10T22:00:19.318Z,85.34
2023-05-10T22:02:46.734Z,85.08
2023-05-10T22:05:13.519Z,85.24
2023-05-10T22:07:39.966Z,85.01
2023-05-10T22:10:08.129Z,85.44
2023-05-10T22:12:34.618Z,84.87
2023-05-10T22:15:10.313Z,85.19
2023-05-10T22:17:38.576Z,85.59
2023-05-10T22:20:07.188Z,85.35
2023-05-10T22:22:33.606Z,85.03
2023-05-10T22:25:00.038Z,85.30
2023-05-10T22:27:26.572Z,85.72
2023-05-10T22:29:53.117Z,85.93
2023-05-10T22:32:19.749Z,86.08
2023-05-10T22:34:46.240Z,86.17
2023-05-10T22:37:14.771Z,86.38
2023-05-10T22:39:41.348Z,86.38
2023-05-10T22:42:08.107Z,86.37
2023-05-10T22:44:34.598Z,86.69
2023-05-10T22:47:01.261Z,86.60
2023-05-10T22:49:27.718Z,86.74
2023-05-10T22:51:54.204Z,86.56
2023-05-10T22:54:20.757Z,86.31
2023-05-10T22:56:47.328Z,86.29
2023-05-10T22:59:13.754Z,86.30
2023-05-10T23:01:40.811Z,86.28
2023-05-10T23:04:07.527Z,86.06
2023-05-10T23:06:34.182Z,85.84
2023-05-10T23:09:00.649Z,85.54
2023-05-10T23:11:27.041Z,85.62
2023-05-10T23:13:53.482Z,85.25
2023-05-10T23:16:19.922Z,85.14
2023-05-10T23:18:46.427Z,85.48
2023-05-10T23:21:12.922Z,85.89
2023-05-10T23:23:39.408Z,86.03
2023-05-10T23:26:06.072Z,86.43
2023-05-10T23:28:32.486Z,86.25
2023-05-10T23:30:59.071Z,86.58
2023-05-10T23:33:26.588Z,86.28
2023-05-10T23:35:54.258Z,85.77
2023-05-10T23:38:21.280Z,85.68
2023-05-10T23:40:51.550Z,85.96
2023-05-10T23:43:19.712Z,86.09
2023-05-10T23:45:54.044Z,86.11
2023-05-10T23:48:20.803Z,86.45
2023-05-10T23:50:47.266Z,87.08
2023-05-10T23:53:13.741Z,87.09
2023-05-10T23:55:40.163Z,87.46
2023-05-10T23:58:07.660Z,86.98
